createdAt,value
2023-04-29T00:01:22.536Z,28.58
2023-04-29T00:03:49.968Z,28.69
2023-04-29T00:06:17.507Z,28.97
2023-04-29T00:08:44.562Z,29.02
2023-04-29T00:11:11.698Z,28.93
2023-04-29T00:13:41.780Z,28.95
2023-04-29T00:16:09.850Z,29.02
2023-04-29T00:18:37.338Z,29.07
2023-04-29T00:21:05.731Z,29.02
2023-04-29T00:23:33.555Z,28.90
2023-04-29T00:26:00.406Z,28.81
2023-04-29T00:28:27.552Z,28.82
2023-04-29T00:30:55.377Z,28.85
2023-04-29T00:33:22.470Z,28.77
2023-04-29T00:35:49.537Z,28.88
2023-04-29T00:38:16.776Z,28.85
2023-04-29T00:40:43.907Z,28.98
2023-04-29T00:43:10.645Z,29.11
2023-04-29T00:45:37.519Z,29.06
2023-04-29T00:48:04.558Z,29.14
2023-04-29T00:50:31.814Z,29.26
2023-04-29T00:52:59.676Z,29.31
2023-04-29T00:55:26.735Z,29.52
2023-04-29T00:57:53.894Z,29.54
2023-04-29T01:00:20.928Z,29.70
2023-04-29T01:02:48.930Z,29.70
2023-04-29T01:05:15.858Z,30.01
2023-04-29T01:08:13.163Z,30.21
2023-04-29T01:10:55.011Z,30.76
2023-04-29T01:13:49.511Z,31.15
2023-04-29T01:16:23.941Z,31.27
2023-04-29T01:18:55.369Z,31.09
2023-04-29T01:21:27.740Z,30.98
2023-04-29T01:23:57.734Z,30.93
2023-04-29T01:26:27.265Z,30.97
2023-04-29T01:29:39.075Z,30.96
2023-04-29T01:32:11.237Z,31.08
2023-04-29T01:34:47.274Z,31.47
2023-04-29T01:37:19.159Z,31.74
2023-04-29T01:40:09.058Z,31.95
2023-04-29T01:42:45.683Z,32.20
2023-04-29T01:45:16.820Z,32.41
2023-04-29T01:47:44.853Z,32.73
2023-04-29T01:50:11.927Z,33.06
2023-04-29T01:52:39.456Z,33.09
2023-04-29T01:55:07.212Z,33.03
2023-04-29T01:57:41.809Z,33.20
2023-04-29T02:00:18.024Z,33.22
2023-04-29T02:02:48.679Z,33.22
2023-04-29T02:05:33.701Z,33.32
2023-04-29T02:08:01.276Z,33.35
2023-04-29T02:10:28.827Z,33.50
2023-04-29T02:13:04.368Z,33.49
2023-04-29T02:15:32.960Z,33.24
2023-04-29T02:18:00.281Z,33.01
2023-04-29T02:20:27.375Z,32.81
2023-04-29T02:22:54.116Z,32.63
2023-04-29T02:25:20.896Z,32.60
2023-04-29T02:27:47.620Z,32.75
2023-04-29T02:30:14.387Z,32.84
2023-04-29T02:32:41.322Z,32.95
2023-04-29T02:35:09.046Z,33.29
2023-04-29T02:37:35.949Z,33.35
2023-04-29T02:40:03.454Z,33.61
2023-04-29T02:42:31.113Z,33.81
2023-04-29T02:44:57.861Z,33.81
2023-04-29T02:47:24.703Z,33.54
2023-04-29T02:49:51.993Z,33.21
2023-04-29T02:52:19.091Z,32.97
2023-04-29T02:54:46.295Z,32.84
2023-04-29T02:57:13.408Z,32.53
2023-04-29T02:59:40.270Z,32.22
2023-04-29T03:02:07.053Z,32.10
2023-04-29T03:04:33.975Z,32.14
2023-04-29T03:07:00.795Z,32.18
2023-04-29T03:09:28.245Z,32.14
2023-04-29T03:11:55.969Z,31.80
2023-04-29T03:14:22.862Z,31.35
2023-04-29T03:16:50.139Z,30.99
2023-04-29T03:19:17.774Z,30.60
2023-04-29T03:21:44.772Z,30.07
2023-04-29T03:24:11.427Z,29.48
2023-04-29T03:26:38.359Z,28.90
2023-04-29T03:29:05.780Z,28.10
2023-04-29T03:31:33.758Z,27.32
2023-04-29T03:34:00.460Z,26.46
2023-04-29T03:36:27.460Z,25.83
2023-04-29T03:39:02.891Z,25.02
2023-04-29T03:41:30.523Z,24.40
2023-04-29T03:44:00.832Z,23.92
2023-04-29T03:46:29.214Z,23.47
2023-04-29T03:48:57.203Z,22.86
2023-04-29T03:51:24.867Z,22.45
2023-04-29T03:53:55.929Z,22.07
2023-04-29T03:56:25.001Z,21.56
2023-04-29T03:58:52.575Z,21.22
2023-04-29T04:01:20.473Z,20.84
2023-04-29T04:03:47.461Z,20.52
2023-04-29T04:06:15.037Z,19.88
2023-04-29T04:08:42.290Z,19.41
2023-04-29T04:11:14.475Z,19.00
2023-04-29T04:13:55.770Z,18.50
2023-04-29T04:16:23.608Z,17.85
2023-04-29T04:18:51.902Z,17.28
2023-04-29T04:21:18.817Z,16.34
2023-04-29T04:23:50.902Z,15.94
2023-04-29T04:26:21.239Z,15.43
2023-04-29T04:29:02.146Z,14.93
2023-04-29T04:31:47.862Z,14.55
2023-04-29T04:34:15.563Z,14.04
2023-04-29T04:36:43.119Z,13.44
2023-04-29T04:39:09.964Z,13.03
2023-04-29T04:41:36.818Z,12.83
2023-04-29T04:44:04.379Z,12.80
2023-04-29T04:46:56.403Z,12.67
2023-04-29T04:49:46.291Z,12.43
2023-04-29T04:52:13.297Z,12.53
2023-04-29T04:54:45.860Z,12.40
2023-04-29T04:57:16.795Z,12.51
2023-04-29T04:59:44.527Z,12.58
2023-04-29T05:02:11.598Z,12.32
2023-04-29T05:04:38.822Z,12.00
2023-04-29T05:07:06.208Z,12.07
2023-04-29T05:09:44.305Z,12.17
2023-04-29T05:12:11.334Z,11.96
2023-04-29T05:14:38.187Z,12.16
2023-04-29T05:17:05.040Z,12.06
2023-04-29T05:19:32.499Z,11.95
2023-04-29T05:22:00.138Z,11.80
2023-04-29T05:24:27.050Z,11.60
2023-04-29T05:26:53.834Z,11.70
2023-04-29T05:29:20.655Z,11.82
2023-04-29T05:31:51.832Z,11.79
2023-04-29T05:34:19.189Z,11.93
2023-04-29T05:36:46.253Z,11.90
2023-04-29T05:39:14.205Z,11.85
2023-04-29T05:41:41.916Z,11.89
2023-04-29T05:44:19.692Z,11.53
2023-04-29T05:46:48.130Z,11.26
2023-04-29T05:49:15.673Z,11.23
2023-04-29T05:51:42.476Z,11.11
2023-04-29T05:54:09.529Z,10.97
2023-04-29T05:56:37.064Z,11.09
2023-04-29T05:59:03.911Z,11.57
2023-04-29T06:01:30.988Z,11.37
2023-04-29T06:03:58.545Z,11.50
2023-04-29T06:06:44.409Z,11.39
2023-04-29T06:09:27.196Z,11.35
2023-04-29T06:11:57.385Z,11.55
2023-04-29T06:14:24.311Z,11.88
2023-04-29T06:16:53.302Z,11.88
2023-04-29T06:19:20.239Z,11.54
2023-04-29T06:21:48.076Z,11.37
2023-04-29T06:24:15.701Z,11.60
2023-04-29T06:26:43.377Z,11.71
2023-04-29T06:29:10.121Z,11.93
2023-04-29T06:31:37.980Z,12.42
2023-04-29T06:34:05.011Z,11.72
2023-04-29T06:36:33.727Z,11.48
2023-04-29T06:39:19.361Z,11.76
2023-04-29T06:42:05.086Z,12.57
2023-04-29T06:45:04.499Z,12.85
2023-04-29T06:47:40.864Z,12.74
2023-04-29T06:50:12.195Z,11.99
2023-04-29T06:52:39.467Z,12.35
2023-04-29T06:55:06.985Z,11.76
2023-04-29T06:57:33.920Z,10.69
2023-04-29T07:00:00.770Z,10.73
2023-04-29T07:02:27.805Z,10.98
2023-04-29T07:04:54.929Z,11.44
2023-04-29T07:07:21.834Z,11.31
2023-04-29T07:09:51.827Z,11.39
2023-04-29T07:12:20.644Z,10.90
2023-04-29T07:14:47.538Z,11.66
2023-04-29T07:17:14.446Z,11.43
2023-04-29T07:19:42.194Z,11.67
2023-04-29T07:22:09.140Z,12.06
2023-04-29T07:24:36.499Z,12.17
2023-04-29T07:27:04.166Z,11.65
2023-04-29T07:29:31.165Z,12.11
2023-04-29T07:31:57.984Z,12.64
2023-04-29T07:34:25.061Z,12.52
2023-04-29T07:36:51.952Z,12.63
2023-04-29T07:39:18.687Z,12.82
2023-04-29T07:41:48.715Z,12.83
2023-04-29T07:44:15.735Z,12.89
2023-04-29T07:46:42.596Z,12.81
2023-04-29T07:49:09.958Z,13.06
2023-04-29T07:51:36.901Z,12.97
2023-04-29T07:54:04.252Z,12.92
2023-04-29T07:56:31.493Z,12.88
2023-04-29T07:59:00.018Z,13.22
2023-04-29T08:01:27.968Z,13.29
2023-04-29T08:03:54.945Z,13.49
2023-04-29T08:06:23.713Z,13.50
2023-04-29T08:08:50.606Z,13.04
2023-04-29T08:11:20.364Z,13.25
2023-04-29T08:13:47.282Z,13.61
2023-04-29T08:16:14.072Z,13.41
2023-04-29T08:18:42.059Z,13.77
2023-04-29T08:21:10.838Z,13.83
2023-04-29T08:23:38.796Z,13.91
2023-04-29T08:26:05.613Z,13.75
2023-04-29T08:28:32.632Z,13.62
2023-04-29T08:30:59.550Z,13.48
2023-04-29T08:33:26.265Z,13.43
2023-04-29T08:36:03.144Z,13.72
2023-04-29T08:38:30.497Z,13.95
2023-04-29T08:40:57.207Z,13.88
2023-04-29T08:43:23.876Z,14.07
2023-04-29T08:45:50.756Z,14.14
2023-04-29T08:48:17.977Z,13.89
2023-04-29T08:50:45.050Z,13.70
2023-04-29T08:53:13.374Z,14.04
2023-04-29T08:55:46.924Z,14.25
2023-04-29T08:58:14.832Z,13.66
2023-04-29T09:00:42.555Z,13.87
2023-04-29T09:03:22.192Z,14.18
2023-04-29T09:05:50.059Z,14.43
2023-04-29T09:08:16.855Z,14.70
2023-04-29T09:10:43.615Z,14.61
2023-04-29T09:13:25.337Z,14.62
2023-04-29T09:15:52.081Z,14.73
2023-04-29T09:18:41.208Z,15.06
2023-04-29T09:21:14.413Z,14.98
2023-04-29T09:23:41.257Z,15.32
2023-04-29T09:26:09.441Z,15.72
2023-04-29T09:28:39.213Z,15.08
2023-04-29T09:31:07.761Z,15.26
2023-04-29T09:33:54.307Z,15.35
2023-04-29T09:36:39.981Z,15.64
2023-04-29T09:39:13.072Z,15.88
2023-04-29T09:41:40.952Z,15.80
2023-04-29T09:44:08.428Z,15.87
2023-04-29T09:46:36.268Z,16.43
2023-04-29T09:49:06.416Z,16.10
2023-04-29T09:51:33.054Z,16.22
2023-04-29T09:54:01.200Z,16.70
2023-04-29T09:56:30.208Z,16.13
2023-04-29T09:59:07.113Z,16.20
2023-04-29T10:01:34.270Z,16.36
2023-04-29T10:06:11.642Z,17.52
2023-04-29T10:08:39.279Z,16.59
2023-04-29T10:11:07.183Z,16.18
2023-04-29T10:13:35.500Z,16.54
2023-04-29T10:16:33.258Z,16.94
2023-04-29T10:19:01.560Z,16.62
2023-04-29T10:21:32.334Z,16.45
2023-04-29T10:23:59.964Z,16.95
2023-04-29T10:26:28.758Z,17.38
2023-04-29T10:28:56.771Z,17.66
2023-04-29T10:31:26.567Z,16.87
2023-04-29T10:33:56.359Z,16.90
2023-04-29T10:36:24.030Z,16.87
2023-04-29T10:38:53.459Z,16.80
2023-04-29T10:41:25.568Z,16.30
2023-04-29T10:43:53.396Z,16.66
2023-04-29T10:46:24.329Z,16.89
2023-04-29T10:48:55.492Z,16.51
2023-04-29T10:51:33.397Z,16.69
2023-04-29T10:54:10.893Z,17.02
2023-04-29T10:56:49.632Z,16.76
2023-04-29T10:59:36.884Z,17.14
2023-04-29T11:02:03.780Z,18.03
2023-04-29T11:04:30.803Z,17.12
2023-04-29T11:06:59.231Z,17.03
2023-04-29T11:09:27.960Z,17.56
2023-04-29T11:12:03.437Z,17.69
2023-04-29T11:14:51.379Z,17.31
2023-04-29T11:17:23.637Z,17.49
2023-04-29T11:19:51.141Z,17.20
2023-04-29T11:22:18.650Z,17.08
2023-04-29T11:25:06.157Z,17.15
2023-04-29T11:27:35.324Z,16.78
2023-04-29T11:30:05.440Z,16.68
2023-04-29T11:32:40.562Z,16.51
2023-04-29T11:35:17.878Z,16.74
2023-04-29T11:37:45.874Z,17.09
2023-04-29T11:40:13.558Z,17.36
2023-04-29T11:42:48.604Z,17.46
2023-04-29T11:45:17.684Z,17.36
2023-04-29T11:47:48.692Z,17.97
2023-04-29T11:50:19.248Z,17.36
2023-04-29T11:52:47.429Z,18.18
2023-04-29T11:55:14.937Z,18.18
2023-04-29T11:57:42.057Z,17.44
2023-04-29T12:00:14.121Z,17.22
2023-04-29T12:02:44.962Z,17.43
2023-04-29T12:05:13.943Z,17.23
2023-04-29T12:07:41.250Z,17.28
2023-04-29T12:10:11.238Z,17.17
2023-04-29T12:12:41.061Z,16.99
2023-04-29T12:15:12.886Z,17.11
2023-04-29T12:17:39.933Z,17.59
2023-04-29T12:20:09.452Z,16.91
2023-04-29T12:22:36.427Z,17.02
2023-04-29T12:25:04.356Z,17.02
2023-04-29T12:27:31.271Z,16.31
2023-04-29T12:29:58.546Z,16.38
2023-04-29T12:32:25.818Z,16.37
2023-04-29T12:34:53.573Z,16.58
2023-04-29T12:37:23.187Z,16.72
2023-04-29T12:39:50.897Z,16.81
2023-04-29T12:42:18.125Z,16.33
2023-04-29T12:44:47.330Z,16.40
2023-04-29T12:47:14.844Z,16.10
2023-04-29T12:49:46.307Z,16.27
2023-04-29T12:52:14.474Z,16.39
2023-04-29T12:54:44.968Z,16.08
2023-04-29T12:57:12.353Z,16.16
2023-04-29T12:59:41.260Z,16.64
2023-04-29T13:02:08.788Z,16.48
2023-04-29T13:04:35.909Z,16.42
2023-04-29T13:07:04.509Z,16.25
2023-04-29T13:09:31.599Z,16.33
2023-04-29T13:11:59.706Z,16.50
2023-04-29T13:14:27.151Z,16.31
2023-04-29T13:16:54.193Z,16.22
2023-04-29T13:21:52.589Z,15.97
2023-04-29T13:24:20.395Z,15.43
2023-04-29T13:26:50.241Z,15.38
2023-04-29T13:29:18.653Z,15.55
2023-04-29T13:31:45.657Z,15.37
2023-04-29T13:34:12.663Z,15.62
2023-04-29T13:36:39.648Z,15.99
2023-04-29T13:39:06.655Z,15.74
2023-04-29T13:41:35.708Z,16.03
2023-04-29T13:44:04.407Z,16.02
2023-04-29T13:46:33.237Z,15.80
2023-04-29T13:57:23.144Z,16.05
2023-04-29T14:04:17.429Z,16.25
2023-04-29T14:06:44.630Z,16.36
2023-04-29T14:09:11.884Z,16.76
2023-04-29T14:11:38.915Z,16.74
2023-04-29T14:14:06.111Z,17.03
2023-04-29T14:16:33.301Z,17.65
2023-04-29T14:19:02.881Z,16.96
2023-04-29T14:21:33.450Z,17.14
2023-04-29T14:24:02.625Z,17.91
2023-04-29T14:26:30.157Z,18.08
2023-04-29T14:28:57.890Z,17.94
2023-04-29T14:31:29.744Z,17.71
2023-04-29T14:33:57.123Z,17.53
2023-04-29T14:36:24.274Z,17.29
2023-04-29T14:38:51.366Z,17.42
2023-04-29T14:41:18.485Z,17.63
2023-04-29T14:43:46.165Z,17.64
2023-04-29T14:46:13.376Z,17.70
2023-04-29T14:48:40.545Z,17.76
2023-04-29T14:51:07.891Z,17.84
2023-04-29T14:53:34.835Z,17.66
2023-04-29T14:56:01.806Z,18.03
2023-04-29T14:58:28.835Z,17.92
2023-04-29T15:00:56.695Z,17.88
2023-04-29T15:03:23.692Z,17.85
2023-04-29T15:05:51.435Z,18.07
2023-04-29T15:08:19.540Z,18.19
2023-04-29T15:10:50.315Z,18.23
2023-04-29T15:13:17.543Z,18.02
2023-04-29T15:15:44.474Z,18.15
2023-04-29T15:18:11.433Z,17.98
2023-04-29T15:20:38.691Z,18.09
2023-04-29T15:23:06.169Z,18.07
2023-04-29T15:25:36.142Z,18.30
2023-04-29T15:28:04.914Z,18.28
2023-04-29T15:30:32.481Z,18.45
2023-04-29T15:32:59.458Z,18.71
2023-04-29T15:35:26.686Z,18.64
2023-04-29T15:37:53.914Z,18.79
2023-04-29T15:40:20.879Z,18.70
2023-04-29T15:42:47.716Z,18.62
2023-04-29T15:45:14.739Z,18.76
2023-04-29T15:47:41.743Z,18.73
2023-04-29T15:50:10.688Z,18.74
2023-04-29T15:52:37.497Z,18.75
2023-04-29T15:55:06.209Z,18.63
2023-04-29T15:57:34.911Z,18.52
2023-04-29T16:00:02.079Z,18.70
2023-04-29T16:02:29.086Z,18.70
2023-04-29T16:04:56.325Z,18.91
2023-04-29T16:07:23.167Z,18.69
2023-04-29T16:09:50.051Z,18.61
2023-04-29T16:12:17.191Z,18.46
2023-04-29T16:14:44.199Z,18.56
2023-04-29T16:17:11.189Z,18.76
2023-04-29T16:19:38.452Z,18.85
2023-04-29T16:22:05.864Z,18.80
2023-04-29T16:24:32.853Z,18.80
2023-04-29T16:26:59.901Z,18.96
2023-04-29T16:29:26.842Z,18.96
2023-04-29T16:31:53.925Z,19.26
2023-04-29T16:34:20.944Z,19.08
2023-04-29T16:36:48.076Z,19.11
2023-04-29T16:39:15.149Z,19.28
2023-04-29T16:41:42.099Z,19.43
2023-04-29T16:44:09.526Z,19.68
2023-04-29T16:46:36.567Z,19.79
2023-04-29T16:49:03.564Z,19.68
2023-04-29T16:51:30.809Z,19.49
2023-04-29T16:53:57.868Z,19.37
2023-04-29T16:56:24.795Z,19.32
2023-04-29T16:58:51.978Z,19.40
2023-04-29T17:01:19.933Z,19.55
2023-04-29T17:03:47.818Z,19.57
2023-04-29T17:06:15.707Z,19.61
2023-04-29T17:08:43.231Z,19.71
2023-04-29T17:11:10.677Z,19.80
2023-04-29T17:13:37.561Z,19.85
2023-04-29T17:16:05.202Z,20.02
2023-04-29T17:18:32.061Z,20.05
2023-04-29T17:20:59.895Z,20.23
2023-04-29T17:23:26.946Z,20.27
2023-04-29T17:25:55.812Z,20.46
2023-04-29T17:28:23.624Z,20.38
2023-04-29T17:30:51.466Z,20.67
2023-04-29T17:33:18.359Z,20.76
2023-04-29T17:35:46.356Z,20.80
2023-04-29T17:38:13.436Z,20.94
2023-04-29T17:40:40.362Z,20.85
2023-04-29T17:43:07.228Z,20.98
2023-04-29T17:45:34.160Z,21.11
2023-04-29T17:48:01.110Z,21.16
2023-04-29T17:50:28.101Z,21.28
2023-04-29T17:52:55.094Z,21.36
2023-04-29T17:55:22.099Z,21.46
2023-04-29T17:57:48.924Z,21.58
2023-04-29T18:00:16.441Z,21.69
2023-04-29T18:02:43.388Z,21.89
2023-04-29T18:05:10.558Z,21.84
2023-04-29T18:07:37.448Z,21.83
2023-04-29T18:10:06.080Z,21.90
2023-04-29T18:12:33.216Z,21.75
2023-04-29T18:15:00.768Z,21.73
2023-04-29T18:17:27.780Z,21.76
2023-04-29T18:19:55.112Z,22.02
2023-04-29T18:22:22.183Z,22.35
2023-04-29T18:24:49.770Z,22.37
2023-04-29T18:27:16.680Z,22.63
2023-04-29T18:29:45.129Z,22.63
2023-04-29T18:32:12.093Z,22.77
2023-04-29T18:34:39.118Z,22.79
2023-04-29T18:37:05.998Z,22.96
2023-04-29T18:39:33.017Z,23.15
2023-04-29T18:41:59.899Z,23.35
2023-04-29T18:44:28.044Z,23.35
2023-04-29T18:46:55.028Z,23.32
2023-04-29T18:49:21.876Z,23.49
2023-04-29T18:51:49.872Z,23.60
2023-04-29T18:54:17.987Z,23.64
2023-04-29T18:56:48.588Z,23.80
2023-04-29T18:59:21.292Z,23.89
2023-04-29T19:01:48.323Z,23.92
2023-04-29T19:04:15.548Z,23.96
2023-04-29T19:06:43.060Z,24.08
2023-04-29T19:09:11.389Z,24.27
2023-04-29T19:11:38.428Z,24.29
2023-04-29T19:14:05.974Z,24.32
2023-04-29T19:16:34.809Z,24.27
2023-04-29T19:19:04.255Z,24.46
2023-04-29T19:21:33.152Z,24.62
2023-04-29T19:24:00.249Z,24.85
2023-04-29T19:26:27.285Z,24.46
2023-04-29T19:28:54.284Z,24.76
2023-04-29T19:31:21.577Z,24.92
2023-04-29T19:33:48.716Z,24.94
2023-04-29T19:36:15.713Z,25.09
2023-04-29T19:38:42.567Z,25.07
2023-04-29T19:41:09.535Z,25.25
2023-04-29T19:43:36.339Z,25.24
2023-04-29T19:46:03.328Z,25.03
2023-04-29T19:48:30.806Z,25.14
2023-04-29T19:50:59.640Z,25.24
2023-04-29T19:53:27.420Z,25.45
2023-04-29T19:55:54.294Z,25.61
2023-04-29T19:58:21.268Z,25.74
2023-04-29T20:00:48.529Z,25.97
2023-04-29T20:03:16.098Z,26.16
2023-04-29T20:05:43.445Z,26.10
2023-04-29T20:08:10.273Z,26.32
2023-04-29T20:10:37.072Z,26.48
2023-04-29T20:13:03.950Z,26.51
2023-04-29T20:15:32.271Z,26.95
2023-04-29T20:17:59.082Z,26.80
2023-04-29T20:20:26.375Z,26.83
2023-04-29T20:22:58.037Z,27.09
2023-04-29T20:25:25.876Z,27.05
2023-04-29T20:27:57.499Z,27.15
2023-04-29T20:30:25.987Z,27.16
2023-04-29T20:32:52.964Z,27.40
2023-04-29T20:35:20.913Z,27.56
2023-04-29T20:37:47.858Z,27.65
2023-04-29T20:40:14.664Z,27.76
2023-04-29T20:42:41.860Z,27.70
2023-04-29T20:45:09.053Z,27.64
2023-04-29T20:47:35.895Z,27.64
2023-04-29T20:50:04.692Z,27.82
2023-04-29T20:57:05.640Z,28.11
2023-04-29T20:59:35.692Z,28.36
2023-04-29T21:02:02.493Z,28.85
2023-04-29T21:04:29.874Z,28.90
2023-04-29T21:06:56.745Z,28.83
2023-04-29T21:09:23.688Z,28.75
2023-04-29T21:11:51.247Z,28.83
2023-04-29T21:14:18.959Z,28.88
2023-04-29T21:16:45.861Z,29.07
2023-04-29T21:19:12.648Z,29.36
2023-04-29T21:21:39.444Z,30.63
2023-04-29T21:24:06.917Z,31.11
2023-04-29T21:26:33.844Z,30.66
2023-04-29T21:29:00.624Z,29.86
2023-04-29T21:31:27.488Z,29.53
2023-04-29T21:33:54.373Z,29.39
2023-04-29T21:36:21.243Z,29.33
2023-04-29T21:38:48.864Z,29.29
2023-04-29T21:41:20.936Z,29.14
2023-04-29T21:43:48.638Z,29.19
2023-04-29T21:46:16.173Z,29.17
2023-04-29T21:48:43.681Z,29.13
2023-04-29T21:51:10.557Z,29.11
2023-04-29T21:53:38.230Z,29.10
2023-04-29T21:56:06.210Z,29.14
2023-04-29T21:58:33.487Z,29.35
2023-04-29T22:01:05.501Z,29.41
2023-04-29T22:03:32.415Z,29.63
2023-04-29T22:05:59.327Z,30.19
2023-04-29T22:08:26.262Z,30.62
2023-04-29T22:10:53.151Z,30.69
2023-04-29T22:13:20.081Z,30.56
2023-04-29T22:15:46.968Z,30.21
2023-04-29T22:18:13.948Z,30.22
2023-04-29T22:20:40.830Z,30.26
2023-04-29T22:23:58.152Z,32.21
2023-04-29T22:26:25.570Z,30.54
2023-04-29T22:28:52.977Z,30.49
2023-04-29T22:31:19.923Z,30.31
2023-04-29T22:33:47.010Z,30.51
2023-04-29T22:36:13.913Z,30.80
2023-04-29T22:38:40.742Z,31.08
2023-04-29T22:41:09.767Z,31.37
2023-04-29T22:43:37.217Z,31.66
2023-04-29T22:46:04.266Z,32.00
2023-04-29T22:48:31.315Z,32.41
2023-04-29T22:51:03.086Z,32.77
2023-04-29T22:53:30.051Z,32.78
2023-04-29T22:55:58.237Z,32.84
2023-04-29T22:58:25.785Z,32.59
2023-04-29T23:00:57.525Z,32.60
2023-04-29T23:03:24.986Z,32.39
2023-04-29T23:05:54.775Z,32.23
2023-04-29T23:08:21.687Z,32.31
2023-04-29T23:10:49.692Z,32.35
2023-04-29T23:13:17.193Z,32.36
2023-04-29T23:15:44.650Z,32.47
2023-04-29T23:18:11.804Z,32.76
2023-04-29T23:20:38.751Z,33.27
2023-04-29T23:23:06.278Z,33.44
2023-04-29T23:25:33.134Z,33.58
2023-04-29T23:28:00.079Z,33.62
2023-04-29T23:30:27.055Z,33.61
2023-04-29T23:32:54.109Z,33.87
2023-04-29T23:35:21.831Z,33.98
2023-04-29T23:37:48.797Z,34.12
2023-04-29T23:40:16.339Z,34.24
2023-04-29T23:42:43.395Z,34.34
2023-04-29T23:45:10.748Z,34.43
2023-04-29T23:47:37.946Z,34.49
2023-04-29T23:50:05.990Z,34.17
2023-04-29T23:52:32.915Z,34.03
2023-04-29T23:55:00.211Z,33.93
2023-04-29T23:57:27.027Z,33.76
2023-04-29T23:59:54.276Z,33.64
